createdAt,value
2019-05-15T00:00:32.264Z,3.1
2019-05-15T00:01:02.842Z,3
2019-05-15T00:01:41.384Z,3
2019-05-15T00:02:14.905Z,3
2019-05-15T00:02:50.883Z,3
2019-05-15T00:03:29.145Z,3.1
2019-05-15T00:04:03.051Z,3
2019-05-15T00:04:38.897Z,3
2019-05-15T00:05:14.858Z,3
2019-05-15T00:05:50.818Z,2.9
2019-05-15T00:06:28.927Z,3
2019-05-15T00:07:02.884Z,3
2019-05-15T00:07:39.725Z,3
2019-05-15T00:08:14.813Z,3
2019-05-15T00:08:50.948Z,3
2019-05-15T00:09:29.005Z,2.9
2019-05-15T00:10:02.870Z,3
2019-05-15T00:10:39.630Z,3
2019-05-15T00:11:14.926Z,2.9
2019-05-15T00:11:50.891Z,2.9
2019-05-15T00:12:28.826Z,2.9
2019-05-15T00:13:02.928Z,2.9
2019-05-15T00:13:39.417Z,2.9
2019-05-15T00:14:14.871Z,3
2019-05-15T00:14:50.853Z,3
2019-05-15T00:15:28.203Z,2.9
2019-05-15T00:16:02.901Z,2.9
2019-05-15T00:16:39.111Z,2.9
2019-05-15T00:17:14.843Z,2.8
2019-05-15T00:17:50.959Z,2.8
2019-05-15T00:18:28.526Z,2.8
2019-05-15T00:19:02.875Z,2.8
2019-05-15T00:19:39.285Z,2.8
2019-05-15T00:20:14.937Z,2.7
2019-05-15T00:20:50.915Z,2.8
2019-05-15T00:21:29.029Z,2.7
2019-05-15T00:22:02.842Z,2.7
2019-05-15T00:22:39.443Z,2.7
2019-05-15T00:23:14.897Z,2.7
2019-05-15T00:23:50.867Z,2.7
2019-05-15T00:24:29.098Z,2.6
2019-05-15T00:25:02.930Z,2.6
2019-05-15T00:25:39.790Z,2.6
2019-05-15T00:26:14.865Z,2.6
2019-05-15T00:26:50.835Z,2.4
2019-05-15T00:27:28.856Z,2.5
2019-05-15T00:28:02.927Z,2.5
2019-05-15T00:28:39.304Z,2.5
2019-05-15T00:29:19.642Z,2.5
2019-05-15T00:29:50.918Z,2.4
2019-05-15T00:30:29.191Z,2.5
2019-05-15T00:31:02.892Z,2.5
2019-05-15T00:31:39.205Z,2.4
2019-05-15T00:32:14.923Z,2.4
2019-05-15T00:32:50.897Z,2.4
2019-05-15T00:33:28.831Z,2.4
2019-05-15T00:34:03.048Z,2.4
2019-05-15T00:34:38.903Z,2.4
2019-05-15T00:35:14.873Z,2.4
2019-05-15T00:35:50.855Z,2.4
2019-05-15T00:36:28.979Z,2.3
2019-05-15T00:37:02.923Z,2.3
2019-05-15T00:37:39.477Z,2.3
2019-05-15T00:38:14.884Z,2.4
2019-05-15T00:38:50.979Z,2.3
2019-05-15T00:39:28.726Z,2.3
2019-05-15T00:40:02.905Z,2.2
2019-05-15T00:40:39.834Z,2.2
2019-05-15T00:41:14.936Z,2.2
2019-05-15T00:41:54.975Z,2.2
2019-05-15T00:42:28.773Z,2.3
2019-05-15T00:43:02.846Z,2.2
2019-05-15T00:43:39.148Z,2.3
2019-05-15T00:44:14.894Z,2.1
2019-05-15T00:44:50.892Z,2.2
2019-05-15T00:45:28.151Z,2.2
2019-05-15T00:46:02.942Z,2.2
2019-05-15T00:46:38.903Z,2.1
2019-05-15T00:47:14.867Z,2.1
2019-05-15T00:47:50.849Z,2.2
2019-05-15T00:48:29.489Z,2.1
2019-05-15T00:49:02.907Z,2.1
2019-05-15T00:49:38.862Z,2.1
2019-05-15T00:50:14.834Z,2.1
2019-05-15T00:50:50.916Z,2.2
2019-05-15T00:51:28.849Z,2
2019-05-15T00:52:02.898Z,2.1
2019-05-15T00:52:39.607Z,2.1
2019-05-15T00:53:14.913Z,2.1
2019-05-15T00:53:50.906Z,2.1
2019-05-15T00:54:28.564Z,2.1
2019-05-15T00:55:02.939Z,2.1
2019-05-15T00:55:38.930Z,2.1
2019-05-15T00:56:14.908Z,2.1
2019-05-15T00:56:50.847Z,2.1
2019-05-15T00:57:28.702Z,2.1
2019-05-15T00:58:02.905Z,2.1
2019-05-15T00:58:40.593Z,2.1
2019-05-15T00:59:27.388Z,2.1
2019-05-15T00:59:50.978Z,2.1
2019-05-15T01:00:28.498Z,2.1
2019-05-15T01:01:02.874Z,2.1
2019-05-15T01:01:38.878Z,2.1
2019-05-15T01:02:14.961Z,2.1
2019-05-15T01:02:50.912Z,2
2019-05-15T01:03:28.244Z,2
2019-05-15T01:04:02.872Z,2
2019-05-15T01:04:50.845Z,2
2019-05-15T01:05:28.322Z,2
2019-05-15T01:06:02.903Z,1.9
2019-05-15T01:06:39.302Z,1.9
2019-05-15T01:07:14.878Z,1.9
2019-05-15T01:07:50.934Z,2
2019-05-15T01:08:28.824Z,1.9
2019-05-15T01:09:02.866Z,1.9
2019-05-15T01:09:38.951Z,1.9
2019-05-15T01:10:14.927Z,1.9
2019-05-15T01:10:50.906Z,1.9
2019-05-15T01:11:28.822Z,1.9
2019-05-15T01:12:02.834Z,1.8
2019-05-15T01:12:38.942Z,1.9
2019-05-15T01:13:28.482Z,1.9
2019-05-15T01:14:02.949Z,1.9
2019-05-15T01:14:38.990Z,1.8
2019-05-15T01:15:14.957Z,1.8
2019-05-15T01:15:50.926Z,1.8
2019-05-15T01:16:28.447Z,1.8
2019-05-15T01:17:02.865Z,1.8
2019-05-15T01:17:39.662Z,1.8
2019-05-15T01:18:14.924Z,1.8
2019-05-15T01:18:50.891Z,1.8
2019-05-15T01:19:28.973Z,1.8
2019-05-15T01:20:02.942Z,1.7
2019-05-15T01:20:39.562Z,1.8
2019-05-15T01:21:14.891Z,1.7
2019-05-15T01:22:03.009Z,1.8
2019-05-15T01:22:39.875Z,1.7
2019-05-15T01:23:14.938Z,1.7
2019-05-15T01:23:50.925Z,1.7
2019-05-15T01:24:28.626Z,1.7
2019-05-15T01:25:02.847Z,1.8
2019-05-15T01:25:39.467Z,1.8
2019-05-15T01:26:14.917Z,1.7
2019-05-15T01:26:50.887Z,1.7
2019-05-15T01:27:29.386Z,1.7
2019-05-15T01:28:02.945Z,1.7
2019-05-15T01:28:38.938Z,1.6
2019-05-15T01:29:14.902Z,1.6
2019-05-15T01:29:50.862Z,1.6
2019-05-15T01:30:28.948Z,1.7
2019-05-15T01:31:02.905Z,1.6
2019-05-15T01:31:38.874Z,1.6
2019-05-15T01:32:14.850Z,1.6
2019-05-15T01:32:50.934Z,1.6
2019-05-15T01:33:28.646Z,1.6
2019-05-15T01:34:02.865Z,1.6
2019-05-15T01:34:38.877Z,1.5
2019-05-15T01:35:14.940Z,1.6
2019-05-15T01:35:50.901Z,1.6
2019-05-15T01:36:29.126Z,1.5
2019-05-15T01:37:02.970Z,1.5
2019-05-15T01:37:39.586Z,1.5
2019-05-15T01:38:14.913Z,1.5
2019-05-15T01:38:50.884Z,1.4
2019-05-15T01:39:29.334Z,1.4
2019-05-15T01:40:02.920Z,1.4
2019-05-15T01:40:39.112Z,1.5
2019-05-15T01:41:14.858Z,1.4
2019-05-15T01:41:50.950Z,1.4
2019-05-15T01:42:28.368Z,1.4
2019-05-15T01:43:02.927Z,1.4
2019-05-15T01:43:38.857Z,1.4
2019-05-15T01:44:14.938Z,1.4
2019-05-15T01:44:50.919Z,1.4
2019-05-15T01:45:28.938Z,1.4
2019-05-15T01:46:02.868Z,1.4
2019-05-15T01:46:39.663Z,1.4
2019-05-15T01:47:14.933Z,1.5
2019-05-15T01:47:50.881Z,1.4
2019-05-15T01:48:28.646Z,1.4
2019-05-15T01:49:02.933Z,1.3
2019-05-15T01:49:38.928Z,1.4
2019-05-15T01:50:14.900Z,1.4
2019-05-15T01:50:50.871Z,1.3
2019-05-15T01:51:28.887Z,1.4
2019-05-15T01:52:02.918Z,1.5
2019-05-15T01:52:39.533Z,1.4
2019-05-15T01:53:14.934Z,1.4
2019-05-15T01:53:50.977Z,1.4
2019-05-15T01:54:29.254Z,1.4
2019-05-15T01:55:02.928Z,1.4
2019-05-15T01:55:39.911Z,1.3
2019-05-15T01:56:14.971Z,1.4
2019-05-15T01:56:50.906Z,1.3
2019-05-15T01:57:28.966Z,1.4
2019-05-15T01:58:02.987Z,1.5
2019-05-15T01:58:38.946Z,1.4
2019-05-15T01:59:14.920Z,1.4
2019-05-15T02:00:00.598Z,1.4
2019-05-15T02:00:28.573Z,1.5
2019-05-15T02:01:02.939Z,1.6
2019-05-15T02:01:39.634Z,1.5
2019-05-15T02:02:14.875Z,1.6
2019-05-15T02:02:50.974Z,1.6
2019-05-15T02:03:29.200Z,1.6
2019-05-15T02:04:02.898Z,1.5
2019-05-15T02:04:39.697Z,1.6
2019-05-15T02:05:14.979Z,1.6
2019-05-15T02:05:50.924Z,1.6
2019-05-15T02:06:28.837Z,1.6
2019-05-15T02:07:02.889Z,1.6
2019-05-15T02:07:39.593Z,1.5
2019-05-15T02:08:14.940Z,1.6
2019-05-15T02:08:50.891Z,1.5
2019-05-15T02:09:28.372Z,1.7
2019-05-15T02:10:02.976Z,1.6
2019-05-15T02:10:39.686Z,1.5
2019-05-15T02:11:14.885Z,1.6
2019-05-15T02:11:50.859Z,1.6
2019-05-15T02:12:28.902Z,1.6
2019-05-15T02:13:02.938Z,1.7
2019-05-15T02:13:39.351Z,1.6
2019-05-15T02:14:14.850Z,1.6
2019-05-15T02:14:50.957Z,1.6
2019-05-15T02:15:28.879Z,1.6
2019-05-15T02:16:02.926Z,1.6
2019-05-15T02:16:39.679Z,1.5
2019-05-15T02:17:14.943Z,1.6
2019-05-15T02:17:50.911Z,1.6
2019-05-15T02:18:28.884Z,1.5
2019-05-15T02:19:02.968Z,1.6
2019-05-15T02:19:39.538Z,1.6
2019-05-15T02:20:14.930Z,1.6
2019-05-15T02:20:50.877Z,1.6
2019-05-15T02:21:29.069Z,1.6
2019-05-15T02:22:02.962Z,1.6
2019-05-15T02:22:42.895Z,1.6
2019-05-15T02:23:14.876Z,1.6
2019-05-15T02:23:50.958Z,1.6
2019-05-15T02:24:28.734Z,1.7
2019-05-15T02:25:02.913Z,1.8
2019-05-15T02:25:39.256Z,1.8
2019-05-15T02:26:14.978Z,1.8
2019-05-15T02:26:50.940Z,1.9
2019-05-15T02:27:29.675Z,1.8
2019-05-15T02:28:02.900Z,1.8
2019-05-15T02:28:38.981Z,1.8
2019-05-15T02:29:22.499Z,1.8
2019-05-15T02:29:50.900Z,1.9
2019-05-15T02:30:41.065Z,1.9
2019-05-15T02:31:14.910Z,2
2019-05-15T02:31:50.967Z,1.9
2019-05-15T02:32:30.437Z,1.9
2019-05-15T02:33:02.900Z,2
2019-05-15T02:33:40.580Z,2
2019-05-15T02:34:14.966Z,2
2019-05-15T02:34:50.930Z,2
2019-05-15T02:35:29.911Z,2
2019-05-15T02:36:02.899Z,2.1
2019-05-15T02:36:40.475Z,2
2019-05-15T02:37:15.004Z,2
2019-05-15T02:37:50.889Z,2.1
2019-05-15T02:38:30.035Z,2.1
2019-05-15T02:39:14.986Z,2.2
2019-05-15T02:39:50.957Z,2.1
2019-05-15T02:40:29.824Z,2.1
2019-05-15T02:41:02.944Z,2.2
2019-05-15T02:41:40.104Z,2.2
2019-05-15T02:42:14.956Z,2.3
2019-05-15T02:42:50.928Z,2.2
2019-05-15T02:43:30.127Z,2.3
2019-05-15T02:44:03.005Z,2.3
2019-05-15T02:44:40.465Z,2.3
2019-05-15T02:45:14.918Z,2.4
2019-05-15T02:45:51.508Z,2.4
2019-05-15T02:46:30.285Z,2.4
2019-05-15T02:47:02.962Z,2.4
2019-05-15T02:47:40.068Z,2.4
2019-05-15T02:48:14.886Z,2.6
2019-05-15T02:48:50.981Z,2.5
2019-05-15T02:49:30.452Z,2.6
2019-05-15T02:50:02.916Z,2.4
2019-05-15T02:50:39.682Z,2.6
2019-05-15T02:51:14.980Z,2.6
2019-05-15T02:51:50.945Z,2.7
2019-05-15T02:52:29.876Z,2.7
2019-05-15T02:53:02.906Z,2.7
2019-05-15T02:53:40.028Z,2.9
2019-05-15T02:54:14.944Z,2.7
2019-05-15T02:54:50.912Z,2.8
2019-05-15T02:55:29.915Z,2.8
2019-05-15T02:56:02.975Z,2.8
2019-05-15T02:56:39.737Z,2.9
2019-05-15T02:57:14.924Z,2.9
2019-05-15T02:57:50.881Z,3
2019-05-15T02:58:29.685Z,3
2019-05-15T02:59:02.944Z,3
2019-05-15T02:59:40.023Z,3.1
2019-05-15T03:00:46.358Z,3.1
2019-05-15T03:00:53.843Z,3.1
2019-05-15T03:01:28.901Z,3.1
2019-05-15T03:02:02.911Z,3.2
2019-05-15T03:02:41.913Z,3.3
2019-05-15T03:03:14.964Z,3.2
2019-05-15T03:03:50.926Z,3.3
2019-05-15T03:04:29.527Z,3.3
2019-05-15T03:05:03.019Z,3.3
2019-05-15T03:05:41.238Z,3.4
2019-05-15T03:06:14.929Z,3.3
2019-05-15T03:06:50.886Z,3.4
2019-05-15T03:07:29.929Z,3.3
2019-05-15T03:08:02.983Z,3.4
2019-05-15T03:08:40.440Z,3.5
2019-05-15T03:09:14.899Z,3.4
2019-05-15T03:09:50.972Z,3.4
2019-05-15T03:10:30.033Z,3.5
2019-05-15T03:11:02.932Z,3.5
2019-05-15T03:11:41.357Z,3.6
2019-05-15T03:12:14.984Z,3.6
2019-05-15T03:12:50.947Z,3.7
2019-05-15T03:13:30.193Z,3.7
2019-05-15T03:14:02.887Z,3.7
2019-05-15T03:14:40.269Z,3.7
2019-05-15T03:15:14.946Z,3.7
2019-05-15T03:15:50.932Z,3.8
2019-05-15T03:16:30.693Z,3.7
2019-05-15T03:17:02.977Z,3.8
2019-05-15T03:17:41.091Z,3.9
2019-05-15T03:18:14.907Z,3.8
2019-05-15T03:18:55.813Z,3.9
2019-05-15T03:19:30.243Z,3.9
2019-05-15T03:20:02.955Z,3.9
2019-05-15T03:20:39.608Z,3.9
2019-05-15T03:21:14.872Z,4
2019-05-15T03:21:50.978Z,3.9
2019-05-15T03:22:29.762Z,3.9
2019-05-15T03:23:02.903Z,4
2019-05-15T03:23:40.919Z,4
2019-05-15T03:24:14.955Z,3.9
2019-05-15T03:24:50.938Z,4.1
2019-05-15T03:25:29.985Z,4.1
2019-05-15T03:26:04.819Z,4
2019-05-15T03:26:39.804Z,4.1
2019-05-15T03:27:14.949Z,4.2
2019-05-15T03:27:50.896Z,4.1
2019-05-15T03:28:29.810Z,4.1
2019-05-15T03:29:02.952Z,4.2
2019-05-15T03:29:40.816Z,4.2
2019-05-15T03:30:20.326Z,4.2
2019-05-15T03:31:39.846Z,4.2
2019-05-15T03:32:00.467Z,4.2
2019-05-15T03:32:32.114Z,4.3
2019-05-15T03:32:55.100Z,4.3
2019-05-15T03:33:55.328Z,4.3
2019-05-15T03:34:40.613Z,4.2
2019-05-15T03:35:06.053Z,4.3
2019-05-15T03:35:44.515Z,4.4
2019-05-15T03:36:14.940Z,4.4
2019-05-15T03:36:53.761Z,4.3
2019-05-15T03:37:34.198Z,4.4
2019-05-15T03:38:02.975Z,4.4
2019-05-15T03:38:39.906Z,4.4
2019-05-15T03:39:14.904Z,4.4
2019-05-15T03:39:52.287Z,4.4
2019-05-15T03:40:30.167Z,4.6
2019-05-15T03:41:02.944Z,4.4
2019-05-15T03:41:39.718Z,4.5
2019-05-15T03:42:14.882Z,4.5
2019-05-15T03:42:51.019Z,4.5
2019-05-15T03:43:29.619Z,4.5
2019-05-15T03:44:02.900Z,4.5
2019-05-15T03:44:39.773Z,4.5
2019-05-15T03:45:14.968Z,4.5
2019-05-15T03:45:50.982Z,4.5
2019-05-15T03:46:29.495Z,4.6
2019-05-15T03:47:02.982Z,4.6
2019-05-15T03:47:40.722Z,4.6
2019-05-15T03:48:14.941Z,4.7
2019-05-15T03:48:50.940Z,4.6
2019-05-15T03:49:29.744Z,4.7
2019-05-15T03:50:02.967Z,4.7
2019-05-15T03:50:40.822Z,4.7
2019-05-15T03:51:14.909Z,4.7
2019-05-15T03:51:50.991Z,4.7
2019-05-15T03:52:29.813Z,4.8
2019-05-15T03:53:02.947Z,4.7
2019-05-15T03:53:40.389Z,4.7
2019-05-15T03:54:14.990Z,4.7
2019-05-15T03:54:50.959Z,4.8
2019-05-15T03:55:29.918Z,4.8
2019-05-15T03:56:02.892Z,4.8
2019-05-15T03:56:39.920Z,4.8
2019-05-15T03:57:22.937Z,4.8
2019-05-15T03:57:50.957Z,4.8
2019-05-15T03:58:29.224Z,4.8
2019-05-15T03:59:02.981Z,4.9
2019-05-15T03:59:40.250Z,4.9
2019-05-15T04:00:14.915Z,4.9
2019-05-15T04:00:51.135Z,5
2019-05-15T04:01:43.013Z,4.9
2019-05-15T04:02:02.963Z,5
2019-05-15T04:02:40.066Z,4.9
2019-05-15T04:03:14.907Z,4.9
2019-05-15T04:03:50.977Z,5
2019-05-15T04:04:29.978Z,5
2019-05-15T04:05:02.978Z,5
2019-05-15T04:05:39.579Z,5
2019-05-15T04:06:15.001Z,4.9
2019-05-15T04:06:50.944Z,5.1
2019-05-15T04:07:29.598Z,5
2019-05-15T04:08:02.901Z,5
2019-05-15T04:08:39.630Z,5
2019-05-15T04:09:14.940Z,5.1
2019-05-15T04:09:50.922Z,5.1
2019-05-15T04:10:29.216Z,5.1
2019-05-15T04:11:14.897Z,5.3
2019-05-15T04:11:50.958Z,5.1
2019-05-15T04:12:29.398Z,5.1
2019-05-15T04:13:02.954Z,5.2
2019-05-15T04:13:40.174Z,5.2
2019-05-15T04:14:14.972Z,5.2
2019-05-15T04:14:50.930Z,5.2
2019-05-15T04:15:30.399Z,5.2
2019-05-15T04:16:02.994Z,5.2
2019-05-15T04:16:39.664Z,5.3
2019-05-15T04:17:14.937Z,5.3
2019-05-15T04:17:50.914Z,5.2
2019-05-15T04:18:29.615Z,5.3
2019-05-15T04:19:02.949Z,5.2
2019-05-15T04:19:39.618Z,5.3
2019-05-15T04:20:14.918Z,5.3
2019-05-15T04:20:50.984Z,5.3
2019-05-15T04:21:30.083Z,5.4
2019-05-15T04:22:02.927Z,5.3
2019-05-15T04:22:40.694Z,5.4
2019-05-15T04:23:15.002Z,5.4
2019-05-15T04:23:50.951Z,5.4
2019-05-15T04:24:30.281Z,5.5
2019-05-15T04:25:02.979Z,5.5
2019-05-15T04:25:39.689Z,5.5
2019-05-15T04:26:14.950Z,5.5
2019-05-15T04:26:50.917Z,5.6
2019-05-15T04:27:29.364Z,5.5
2019-05-15T04:28:02.963Z,5.6
2019-05-15T04:28:42.335Z,5.5
2019-05-15T04:29:14.926Z,5.6
2019-05-15T04:29:50.885Z,5.6
2019-05-15T04:30:26.989Z,5.7
2019-05-15T04:31:02.957Z,5.7
2019-05-15T04:32:02.337Z,5.6
2019-05-15T04:32:14.877Z,5.6
2019-05-15T04:32:50.958Z,5.6
2019-05-15T04:33:29.872Z,5.8
2019-05-15T04:34:02.966Z,5.7
2019-05-15T04:34:40.053Z,5.8
2019-05-15T04:35:14.969Z,5.7
2019-05-15T04:35:50.988Z,5.7
2019-05-15T04:36:29.861Z,5.7
2019-05-15T04:37:02.873Z,5.9
2019-05-15T04:37:41.271Z,5.8
2019-05-15T04:38:14.962Z,5.8
2019-05-15T04:38:50.895Z,5.9
2019-05-15T04:39:29.964Z,5.9
2019-05-15T04:40:02.976Z,5.8
2019-05-15T04:40:40.238Z,5.9
2019-05-15T04:41:14.942Z,5.9
2019-05-15T04:41:51.008Z,6
2019-05-15T04:42:30.191Z,6
2019-05-15T04:43:02.924Z,6
2019-05-15T04:43:45.440Z,6
2019-05-15T04:44:14.999Z,5.9
2019-05-15T04:44:51.006Z,6.1
2019-05-15T04:45:35.474Z,6
2019-05-15T04:46:03.581Z,6.1
2019-05-15T04:46:39.594Z,6.2
2019-05-15T04:47:14.971Z,6.1
2019-05-15T04:47:50.968Z,6.1
2019-05-15T04:48:29.370Z,6.1
2019-05-15T04:49:03.009Z,6
2019-05-15T04:49:39.819Z,6
2019-05-15T04:50:14.954Z,6.1
2019-05-15T04:50:50.925Z,6.1
2019-05-15T04:51:30.747Z,6.2
2019-05-15T04:52:04.230Z,6.1
2019-05-15T04:52:43.631Z,6.2
2019-05-15T04:53:14.961Z,6.1
2019-05-15T04:53:51.023Z,6.2
2019-05-15T04:54:29.298Z,6.1
2019-05-15T04:55:02.972Z,6.2
2019-05-15T04:55:41.055Z,6.3
2019-05-15T04:56:29.676Z,6.2
2019-05-15T04:57:03.011Z,6.2
2019-05-15T04:57:40.777Z,6.1
2019-05-15T04:58:14.960Z,6.2
2019-05-15T04:58:51.506Z,6.3
2019-05-15T04:59:30.349Z,6.3
2019-05-15T05:00:03.012Z,6.3
2019-05-15T05:00:40.335Z,6.3
2019-05-15T05:01:14.913Z,6.3
2019-05-15T05:02:16.196Z,6.3
2019-05-15T05:02:32.540Z,6.3
2019-05-15T05:03:02.916Z,6.3
2019-05-15T05:03:39.980Z,6.3
2019-05-15T05:04:15.010Z,6.4
2019-05-15T05:05:03.000Z,6.3
2019-05-15T05:05:39.199Z,6.4
2019-05-15T05:06:14.964Z,6.3
2019-05-15T05:06:50.908Z,6.4
2019-05-15T05:07:29.881Z,6.4
2019-05-15T05:08:02.957Z,6.4
2019-05-15T05:08:40.298Z,6.4
2019-05-15T05:09:14.894Z,6.4
2019-05-15T05:09:51.041Z,6.4
2019-05-15T05:10:29.304Z,6.5
2019-05-15T05:11:02.952Z,6.5
2019-05-15T05:11:39.007Z,6.5
2019-05-15T05:12:14.962Z,6.4
2019-05-15T05:12:51.335Z,6.5
2019-05-15T05:13:39.798Z,6.6
2019-05-15T05:14:14.965Z,6.5
2019-05-15T05:14:51.043Z,6.5
2019-05-15T05:15:29.527Z,6.6
2019-05-15T05:16:02.958Z,6.6
2019-05-15T05:16:39.841Z,6.6
2019-05-15T05:17:15.001Z,6.6
2019-05-15T05:17:50.987Z,6.7
2019-05-15T05:18:30.032Z,6.6
2019-05-15T05:19:02.946Z,6.6
2019-05-15T05:19:40.594Z,6.6
2019-05-15T05:20:14.978Z,6.7
2019-05-15T05:20:50.936Z,6.8
2019-05-15T05:21:28.165Z,6.8
2019-05-15T05:22:14.932Z,6.8
2019-05-15T05:22:50.994Z,6.8
2019-05-15T05:23:28.704Z,6.8
2019-05-15T05:24:02.952Z,6.9
2019-05-15T05:24:38.883Z,6.9
2019-05-15T05:25:15.022Z,7
2019-05-15T05:25:50.964Z,7
2019-05-15T05:26:29.592Z,7
2019-05-15T05:27:02.918Z,7
2019-05-15T05:27:39.014Z,6.9
2019-05-15T05:28:14.976Z,7
2019-05-15T05:28:50.921Z,6.9
2019-05-15T05:29:28.378Z,7
2019-05-15T05:30:02.990Z,7
2019-05-15T05:30:39.023Z,7
2019-05-15T05:31:14.938Z,7.1
2019-05-15T05:32:34.693Z,7.2
2019-05-15T05:32:50.947Z,7.2
2019-05-15T05:33:29.014Z,7.1
2019-05-15T05:34:02.977Z,7.1
2019-05-15T05:34:39.552Z,7.2
2019-05-15T05:35:14.934Z,7.2
2019-05-15T05:35:50.906Z,7.3
2019-05-15T05:36:28.230Z,7.4
2019-05-15T05:37:02.956Z,7.3
2019-05-15T05:37:39.494Z,7.3
2019-05-15T05:38:14.901Z,7.3
2019-05-15T05:38:50.972Z,7.3
2019-05-15T05:39:29.617Z,7.3
2019-05-15T05:40:02.929Z,7.3
2019-05-15T05:40:38.932Z,7.4
2019-05-15T05:41:14.991Z,7.4
2019-05-15T05:41:50.951Z,7.4
2019-05-15T05:42:29.381Z,7.4
2019-05-15T05:43:03.008Z,7.5
2019-05-15T05:43:38.981Z,7.5
2019-05-15T05:44:14.965Z,7.4
2019-05-15T05:44:50.925Z,7.5
2019-05-15T05:45:29.067Z,7.5
2019-05-15T05:46:02.966Z,7.6
2019-05-15T05:46:40.125Z,7.5
2019-05-15T05:47:14.928Z,7.5
2019-05-15T05:47:50.990Z,7.5
2019-05-15T05:48:29.503Z,7.5
2019-05-15T05:49:02.948Z,7.5
2019-05-15T05:49:38.905Z,7.4
2019-05-15T05:50:14.997Z,7.5
2019-05-15T05:50:50.955Z,7.5
2019-05-15T05:51:28.516Z,7.5
2019-05-15T05:52:02.881Z,7.6
2019-05-15T05:52:39.607Z,7.5
2019-05-15T05:53:14.970Z,7.6
2019-05-15T05:53:50.964Z,7.5
2019-05-15T05:54:29.165Z,7.5
2019-05-15T05:55:02.994Z,7.6
2019-05-15T05:55:38.946Z,7.6
2019-05-15T05:56:14.971Z,7.6
2019-05-15T05:56:50.903Z,7.7
2019-05-15T05:57:28.313Z,7.7
2019-05-15T05:58:02.966Z,7.7
2019-05-15T05:58:39.396Z,7.6
2019-05-15T05:59:14.912Z,7.6
2019-05-15T05:59:51.043Z,7.8
2019-05-15T06:00:28.911Z,7.6
2019-05-15T06:01:02.924Z,7.8
2019-05-15T06:01:44.456Z,7.7
2019-05-15T06:02:14.995Z,7.7
2019-05-15T06:02:52.894Z,7.8
2019-05-15T06:03:28.462Z,7.8
2019-05-15T06:04:02.900Z,7.7
2019-05-15T06:04:38.991Z,7.8
2019-05-15T06:05:14.963Z,7.8
2019-05-15T06:05:50.938Z,7.8
2019-05-15T06:06:29.482Z,7.8
2019-05-15T06:07:14.508Z,7.8
2019-05-15T06:07:39.302Z,7.8
2019-05-15T06:08:14.958Z,7.9
2019-05-15T06:08:50.883Z,7.9
2019-05-15T06:09:28.136Z,7.9
2019-05-15T06:10:02.950Z,8
2019-05-15T06:10:39.119Z,7.9
2019-05-15T06:11:14.878Z,8
2019-05-15T06:11:50.963Z,8
2019-05-15T06:12:28.523Z,8
2019-05-15T06:13:02.960Z,8
2019-05-15T06:13:38.871Z,8
2019-05-15T06:14:14.958Z,8
2019-05-15T06:14:50.937Z,8.1
2019-05-15T06:15:28.881Z,8
2019-05-15T06:16:02.976Z,8.1
2019-05-15T06:16:39.206Z,8
2019-05-15T06:17:14.926Z,8.1
2019-05-15T06:17:50.911Z,8.1
2019-05-15T06:18:28.519Z,8.1
2019-05-15T06:19:03.035Z,8.1
2019-05-15T06:19:39.027Z,8
2019-05-15T06:20:14.909Z,8.1
2019-05-15T06:20:51.016Z,8.1
2019-05-15T06:21:28.875Z,8.1
2019-05-15T06:22:02.923Z,8
2019-05-15T06:22:39.313Z,8
2019-05-15T06:23:15.030Z,8.1
2019-05-15T06:24:02.329Z,8.1
2019-05-15T06:25:05.442Z,8.1
2019-05-15T06:25:39.466Z,8.2
2019-05-15T06:26:14.955Z,8.1
2019-05-15T06:26:50.942Z,8.1
2019-05-15T06:27:28.290Z,8.2
2019-05-15T06:28:03.007Z,8.2
2019-05-15T06:28:39.845Z,8.2
2019-05-15T06:29:14.912Z,8.2
2019-05-15T06:29:50.885Z,8.2
2019-05-15T06:30:31.026Z,8.1
2019-05-15T06:31:02.937Z,8.1
2019-05-15T06:31:39.215Z,8.2
2019-05-15T06:32:14.877Z,8.3
2019-05-15T06:33:09.246Z,8.2
2019-05-15T06:33:28.123Z,8.2
2019-05-15T06:34:02.889Z,8.1
2019-05-15T06:34:38.931Z,8.2
2019-05-15T06:35:14.991Z,8.3
2019-05-15T06:35:50.957Z,8.3
2019-05-15T06:36:29.265Z,8.4
2019-05-15T06:37:02.904Z,8.3
2019-05-15T06:37:39.954Z,8.4
2019-05-15T06:38:15.030Z,8.4
2019-05-15T06:38:50.916Z,8.4
2019-05-15T06:39:28.754Z,8.4
2019-05-15T06:40:02.968Z,8.2
2019-05-15T06:40:39.848Z,8.4
2019-05-15T06:41:14.914Z,8.4
2019-05-15T06:41:50.866Z,8.3
2019-05-15T06:42:28.705Z,8.4
2019-05-15T06:43:02.939Z,8.5
2019-05-15T06:43:39.364Z,8.5
2019-05-15T06:44:14.862Z,8.5
2019-05-15T06:44:50.971Z,8.5
2019-05-15T06:45:28.812Z,8.5
2019-05-15T06:46:02.903Z,8.5
2019-05-15T06:46:39.618Z,8.5
2019-05-15T06:47:14.945Z,8.5
2019-05-15T06:47:50.939Z,8.5
2019-05-15T06:48:29.115Z,8.6
2019-05-15T06:49:02.873Z,8.6
2019-05-15T06:49:38.965Z,8.6
2019-05-15T06:50:14.920Z,8.7
2019-05-15T06:50:50.902Z,8.7
2019-05-15T06:51:29.169Z,8.7
2019-05-15T06:52:02.941Z,8.7
2019-05-15T06:52:38.910Z,8.8
2019-05-15T06:53:14.921Z,8.8
2019-05-15T06:53:50.969Z,8.8
2019-05-15T06:54:28.797Z,8.9
2019-05-15T06:55:02.918Z,8.9
2019-05-15T06:55:39.331Z,8.9
2019-05-15T06:56:14.968Z,8.9
2019-05-15T06:56:50.965Z,9
2019-05-15T06:57:29.040Z,8.9
2019-05-15T06:58:02.917Z,8.9
2019-05-15T06:58:39.119Z,9
2019-05-15T06:59:14.955Z,9
2019-05-15T06:59:50.913Z,8.9
2019-05-15T07:00:28.729Z,9
2019-05-15T07:01:02.973Z,9
2019-05-15T07:01:39.056Z,9.1
2019-05-15T07:02:14.935Z,9
2019-05-15T07:02:50.888Z,9
2019-05-15T07:03:29.722Z,9.1
2019-05-15T07:04:02.925Z,9
2019-05-15T07:04:38.908Z,9.2
2019-05-15T07:05:14.860Z,9.2
2019-05-15T07:05:51.494Z,9.2
2019-05-15T07:06:28.998Z,9.2
2019-05-15T07:07:02.891Z,9.2
2019-05-15T07:07:39.305Z,9.1
2019-05-15T07:08:15.032Z,9.1
2019-05-15T07:08:50.922Z,9.2
2019-05-15T07:09:28.938Z,9.1
2019-05-15T07:10:02.854Z,9.1
2019-05-15T07:10:38.953Z,9.2
2019-05-15T07:11:14.914Z,9.1
2019-05-15T07:11:50.892Z,9.1
2019-05-15T07:12:28.406Z,9.2
2019-05-15T07:13:02.929Z,9.2
2019-05-15T07:13:38.941Z,9.3
2019-05-15T07:14:14.919Z,9.2
2019-05-15T07:14:50.863Z,9.2
2019-05-15T07:15:28.465Z,9.2
2019-05-15T07:16:02.945Z,9.2
2019-05-15T07:16:39.460Z,9.3
2019-05-15T07:17:14.856Z,9.2
2019-05-15T07:17:50.938Z,9.2
2019-05-15T07:18:28.675Z,9.2
2019-05-15T07:19:02.894Z,9.4
2019-05-15T07:19:39.657Z,9.3
2019-05-15T07:20:14.951Z,9.3
2019-05-15T07:20:50.953Z,9.4
2019-05-15T07:21:28.870Z,9.4
2019-05-15T07:22:02.891Z,9.3
2019-05-15T07:22:39.656Z,9.4
2019-05-15T07:23:14.890Z,9.4
2019-05-15T07:23:51.383Z,9.4
2019-05-15T07:24:29.164Z,9.4
2019-05-15T07:25:02.936Z,9.5
2019-05-15T07:25:39.498Z,9.5
2019-05-15T07:26:14.872Z,9.5
2019-05-15T07:26:50.822Z,9.4
2019-05-15T07:27:28.666Z,9.4
2019-05-15T07:28:02.885Z,9.5
2019-05-15T07:28:38.867Z,9.4
2019-05-15T07:29:15.015Z,9.5
2019-05-15T07:29:50.981Z,9.4
2019-05-15T07:30:29.040Z,9.5
2019-05-15T07:31:02.890Z,9.5
2019-05-15T07:31:38.982Z,9.4
2019-05-15T07:32:14.923Z,9.4
2019-05-15T07:32:50.906Z,9.5
2019-05-15T07:33:42.489Z,9.3
2019-05-15T07:34:02.935Z,9.2
2019-05-15T07:34:38.926Z,9.3
2019-05-15T07:35:14.896Z,9.3
2019-05-15T07:35:50.931Z,9.3
2019-05-15T07:36:39.481Z,9.3
2019-05-15T07:37:14.964Z,9.2
2019-05-15T07:37:50.914Z,9.2
2019-05-15T07:38:28.568Z,9.4
2019-05-15T07:39:02.842Z,9.3
2019-05-15T07:39:39.001Z,9.3
2019-05-15T07:40:14.938Z,9.3
2019-05-15T07:41:03.307Z,9.3
2019-05-15T07:41:28.787Z,9.4
2019-05-15T07:42:02.976Z,9.4
2019-05-15T07:42:39.296Z,9.5
2019-05-15T07:43:14.895Z,9.6
2019-05-15T07:43:50.866Z,9.5
2019-05-15T07:44:28.586Z,9.6
2019-05-15T07:45:02.942Z,9.5
2019-05-15T07:45:44.745Z,9.6
2019-05-15T07:46:14.848Z,9.7
2019-05-15T07:46:50.935Z,9.7
2019-05-15T07:47:29.549Z,9.7
2019-05-15T07:48:02.878Z,9.8
2019-05-15T07:48:38.944Z,9.9
2019-05-15T07:49:14.959Z,10
2019-05-15T07:49:50.930Z,10.1
2019-05-15T07:50:26.885Z,10.3
2019-05-15T07:51:02.876Z,10.2
2019-05-15T07:51:38.936Z,10.3
2019-05-15T07:52:14.902Z,10.2
2019-05-15T07:52:50.958Z,10.3
2019-05-15T07:53:29.243Z,10.4
2019-05-15T07:54:03.110Z,10.4
2019-05-15T07:54:38.923Z,10.5
2019-05-15T07:55:14.891Z,10.6
2019-05-15T07:55:51.731Z,10.6
2019-05-15T07:56:29.155Z,10.7
2019-05-15T07:57:02.946Z,10.7
2019-05-15T07:57:39.880Z,10.7
2019-05-15T07:58:14.935Z,10.6
2019-05-15T07:58:53.015Z,10.7
2019-05-15T07:59:28.341Z,10.7
2019-05-15T08:00:02.884Z,10.7
2019-05-15T08:00:39.846Z,10.8
2019-05-15T08:01:14.963Z,10.7
2019-05-15T08:01:50.903Z,10.8
2019-05-15T08:02:28.817Z,10.7
2019-05-15T08:03:02.866Z,10.8
2019-05-15T08:04:02.943Z,10.7
2019-05-15T08:04:32.210Z,10.7
2019-05-15T08:05:28.856Z,10.6
2019-05-15T08:06:03.497Z,10.6
2019-05-15T08:06:39.304Z,10.5
2019-05-15T08:07:14.873Z,10.5
2019-05-15T08:07:50.834Z,10.6
2019-05-15T08:08:29.483Z,10.6
2019-05-15T08:09:02.903Z,10.4
2019-05-15T08:09:39.430Z,10.5
2019-05-15T08:10:14.927Z,10.6
2019-05-15T08:10:50.954Z,10.6
2019-05-15T08:11:28.894Z,10.6
2019-05-15T08:12:03.664Z,10.7
2019-05-15T08:12:39.697Z,10.7
2019-05-15T08:13:14.914Z,10.7
2019-05-15T08:13:50.891Z,10.8
2019-05-15T08:14:29.299Z,10.7
2019-05-15T08:15:02.953Z,10.7
2019-05-15T08:15:38.914Z,10.8
2019-05-15T08:16:14.908Z,10.7
2019-05-15T08:16:50.874Z,10.7
2019-05-15T08:17:29.346Z,10.7
2019-05-15T08:18:12.655Z,10.7
2019-05-15T08:18:39.775Z,10.6
2019-05-15T08:19:14.869Z,10.7
2019-05-15T08:19:50.954Z,10.7
2019-05-15T08:20:29.197Z,10.6
2019-05-15T08:21:03.017Z,10.7
2019-05-15T08:21:39.048Z,10.8
2019-05-15T08:22:15.516Z,10.8